Time;durP1;ratioP1;P1;durP2;ratioP2;P2;SDS_P1;SDS_P2;PMS_P1;PMS_P2;Temp;Humidity;BMP_temperature;BMP_pressure;BME280_temperature;BME280_humidity;BME280_pressure;Samples;Min_cycle;Max_cycle;Signal;HPM_P1;HPM_P2
2022/08/10 00:00:41;;;;;;;2.75;2.15;;;20.50;99.90;;;;;;5007077;28;20709;-69
2022/08/10 00:03:08;;;;;;;4.72;2.50;;;20.60;99.90;;;;;;4993696;28;20705;-69
2022/08/10 00:05:34;;;;;;;5.18;3.05;;;20.60;99.90;;;;;;4991213;28;20197;-69
2022/08/10 00:08:00;;;;;;;3.80;2.97;;;20.60;99.90;;;;;;5011552;28;20178;-69
2022/08/10 00:10:26;;;;;;;5.68;2.97;;;20.70;99.90;;;;;;4989627;28;20331;-69
2022/08/10 00:12:52;;;;;;;4.25;2.97;;;20.50;99.90;;;;;;5008059;28;20210;-69
2022/08/10 00:15:20;;;;;;;5.20;2.75;;;20.40;99.90;;;;;;5011319;28;20640;-69
2022/08/10 00:17:46;;;;;;;5.70;3.20;;;20.40;99.90;;;;;;5006531;28;20545;-69
2022/08/10 00:20:12;;;;;;;5.63;3.10;;;20.50;99.90;;;;;;5007827;28;20223;-68
2022/08/10 00:22:38;;;;;;;5.43;3.00;;;20.50;99.90;;;;;;5010471;28;20177;-69
2022/08/10 00:25:05;;;;;;;5.13;3.38;;;20.50;99.90;;;;;;5010657;28;20284;-69
2022/08/10 00:27:31;;;;;;;4.00;2.97;;;20.50;99.90;;;;;;5011287;28;20236;-69
2022/08/10 00:29:56;;;;;;;4.95;3.08;;;20.50;99.90;;;;;;5011266;28;20772;-70
2022/08/10 00:32:22;;;;;;;4.18;2.80;;;20.40;99.90;;;;;;5011276;28;20624;-69
2022/08/10 00:34:48;;;;;;;5.20;2.88;;;20.50;99.90;;;;;;5011791;28;20175;-71
2022/08/10 00:37:16;;;;;;;3.03;2.60;;;20.40;99.90;;;;;;5011530;28;20652;-70
2022/08/10 00:39:41;;;;;;;4.70;2.63;;;20.40;99.90;;;;;;5010313;28;20240;-69
2022/08/10 00:42:09;;;;;;;5.70;3.47;;;20.40;99.90;;;;;;4993351;28;20240;-69
2022/08/10 00:44:40;;;;;;;6.95;2.90;;;20.30;99.90;;;;;;5009245;28;20765;-69
2022/08/10 00:47:06;;;;;;;5.55;2.92;;;20.30;99.90;;;;;;5008279;28;20204;-70
2022/08/10 00:49:32;;;;;;;7.80;3.30;;;20.20;99.90;;;;;;4993108;28;20258;-69
2022/08/10 00:51:58;;;;;;;6.88;3.15;;;20.20;99.90;;;;;;5010179;28;20200;-69
2022/08/10 00:54:24;;;;;;;4.68;2.92;;;19.90;99.90;;;;;;5009420;22;20485;-74
2022/08/10 00:56:50;;;;;;;5.65;3.28;;;19.90;99.90;;;;;;5032001;28;20212;-75
2022/08/10 00:59:16;;;;;;;3.45;2.80;;;19.70;99.90;;;;;;5011007;28;20639;-74
2022/08/10 01:01:42;;;;;;;5.32;3.17;;;19.80;99.90;;;;;;5030449;28;20200;-75
2022/08/10 01:04:08;;;;;;;4.82;2.83;;;19.70;99.90;;;;;;5012728;28;20279;-74
2022/08/10 01:06:50;;;;;;;4.55;2.70;;;19.80;99.90;;;;;;5008939;28;20208;-75
2022/08/10 01:09:47;;;;;;;3.65;3.00;;;19.80;99.90;;;;;;5004824;28;20236;-75
2022/08/10 01:12:31;;;;;;;7.07;3.20;;;19.70;99.90;;;;;;5010862;28;20197;-74
2022/08/10 01:15:07;;;;;;;4.25;2.85;;;19.70;99.90;;;;;;5009873;28;20201;-74
2022/08/10 01:17:39;;;;;;;5.15;2.88;;;19.70;99.90;;;;;;5010265;28;20193;-74
2022/08/10 01:20:16;;;;;;;7.15;3.38;;;19.50;99.90;;;;;;4992902;28;20230;-73
2022/08/10 01:23:09;;;;;;;5.65;2.83;;;19.50;99.90;;;;;;5010231;28;20196;-74
2022/08/10 01:26:06;;;;;;;5.70;3.45;;;19.50;99.90;;;;;;4989894;28;20339;-74
2022/08/10 01:28:53;;;;;;;4.65;2.95;;;19.60;99.90;;;;;;5009503;28;20209;-75
2022/08/10 01:31:26;;;;;;;5.97;3.45;;;19.60;99.90;;;;;;5008139;28;20235;-75
2022/08/10 01:34:04;;;;;;;4.82;2.90;;;19.70;99.90;;;;;;5009514;28;20216;-75
2022/08/10 01:36:45;;;;;;;6.88;3.35;;;19.80;99.90;;;;;;5008469;28;20287;-73
2022/08/10 01:39:24;;;;;;;9.23;3.63;;;19.80;99.90;;;;;;5008017;28;20825;-74
2022/08/10 01:41:56;;;;;;;4.40;3.40;;;19.70;99.90;;;;;;4992314;28;20215;-74
2022/08/10 01:44:26;;;;;;;7.93;4.10;;;19.70;99.90;;;;;;4989817;28;20216;-75
2022/08/10 01:48:27;;;;;;;5.97;3.38;;;19.60;99.90;;;;;;5010807;28;20169;-77
2022/08/10 01:49:45;;;;;;;7.40;3.85;;;19.60;99.90;;;;;;5015122;28;20164;-76
2022/08/10 01:52:13;;;;;;;5.82;3.42;;;19.40;99.90;;;;;;5006804;28;20204;-75
2022/08/10 01:54:40;;;;;;;3.75;2.88;;;19.40;99.90;;;;;;5009355;28;20209;-76
2022/08/10 01:57:10;;;;;;;7.85;3.92;;;19.50;99.90;;;;;;5010930;28;20291;-76
2022/08/10 01:59:37;;;;;;;3.92;3.30;;;19.50;99.90;;;;;;4995119;28;20217;-76
2022/08/10 02:02:08;;;;;;;6.70;3.35;;;19.60;99.90;;;;;;4994684;28;20206;-75
2022/08/10 02:04:38;;;;;;;5.57;3.15;;;19.50;99.90;;;;;;5011371;28;20194;-76
2022/08/10 02:07:07;;;;;;;4.60;3.45;;;19.40;99.90;;;;;;5006505;28;20232;-76
2022/08/10 02:09:37;;;;;;;6.38;3.33;;;19.40;99.90;;;;;;4995284;28;20212;-77
2022/08/10 02:12:07;;;;;;;6.57;3.67;;;19.20;99.90;;;;;;5011207;28;20563;-76
2022/08/10 02:14:41;;;;;;;6.72;3.70;;;19.20;99.90;;;;;;5009096;28;20214;-78
2022/08/10 02:17:11;;;;;;;5.70;3.55;;;19.10;99.90;;;;;;4989059;28;20274;-76
2022/08/10 02:19:40;;;;;;;5.38;3.85;;;19.10;99.90;;;;;;5010846;28;20520;-76
2022/08/10 02:22:08;;;;;;;5.78;3.53;;;19.10;99.90;;;;;;5010531;28;20592;-77
2022/08/10 02:24:36;;;;;;;6.85;3.95;;;19.10;99.90;;;;;;5005859;28;20201;-76
2022/08/10 02:27:04;;;;;;;7.85;3.97;;;19.20;99.90;;;;;;5008976;28;20252;-76
2022/08/10 02:29:31;;;;;;;8.10;4.13;;;19.20;99.90;;;;;;4990874;28;20292;-76
2022/08/10 02:31:58;;;;;;;5.68;3.78;;;19.20;99.90;;;;;;5010699;28;20173;-76
2022/08/10 02:34:24;;;;;;;6.35;3.70;;;19.20;99.90;;;;;;4985945;28;20624;-75
2022/08/10 02:36:54;;;;;;;4.70;3.72;;;19.20;99.90;;;;;;4996942;28;20211;-75
2022/08/10 02:39:22;;;;;;;8.45;4.43;;;19.20;99.90;;;;;;5011924;28;20292;-76
2022/08/10 02:42:00;;;;;;;5.55;3.80;;;19.20;99.90;;;;;;5010103;28;20209;-75
2022/08/10 02:44:38;;;;;;;6.00;4.03;;;19.10;99.90;;;;;;5016182;28;20290;-75
2022/08/10 02:47:31;;;;;;;7.95;4.32;;;19.00;99.90;;;;;;4998695;28;20248;-75
2022/08/10 02:50:13;;;;;;;9.73;5.15;;;18.80;99.90;;;;;;4994320;28;20654;-76
2022/08/10 02:52:48;;;;;;;5.32;4.13;;;18.80;99.90;;;;;;5014544;28;20624;-76
2022/08/10 02:55:17;;;;;;;11.63;4.90;;;18.80;99.90;;;;;;5016682;28;20231;-75
2022/08/10 02:57:50;;;;;;;10.07;4.22;;;18.80;99.90;;;;;;5010181;28;20207;-75
2022/08/10 03:00:16;;;;;;;5.80;4.63;;;18.90;99.90;;;;;;5011991;28;20243;-76
2022/08/10 03:02:48;;;;;;;8.27;4.47;;;18.70;99.90;;;;;;5000163;28;20621;-75
2022/08/10 03:05:16;;;;;;;7.68;4.28;;;18.60;99.90;;;;;;5017640;28;20216;-76
2022/08/10 03:07:57;;;;;;;7.55;4.35;;;18.60;99.90;;;;;;4990058;28;20188;-74
2022/08/10 03:10:30;;;;;;;11.23;6.57;;;18.50;99.90;;;;;;5001783;28;20223;-75
2022/08/10 03:13:03;;;;;;;10.68;4.63;;;18.50;99.90;;;;;;5015849;28;20208;-75
2022/08/10 03:15:30;;;;;;;6.53;4.47;;;18.30;99.90;;;;;;5019208;28;20208;-76
2022/08/10 03:17:57;;;;;;;4.88;3.85;;;18.20;99.90;;;;;;5019117;28;20262;-77
2022/08/10 03:20:24;;;;;;;8.13;4.10;;;18.20;99.90;;;;;;5013634;28;20248;-75
2022/08/10 03:22:51;;;;;;;8.45;4.60;;;18.30;99.90;;;;;;5021285;28;20195;-76
2022/08/10 03:25:20;;;;;;;8.45;4.07;;;18.20;99.90;;;;;;5010982;28;20276;-76
2022/08/10 03:27:48;;;;;;;8.77;4.60;;;18.20;99.90;;;;;;5013520;28;20283;-76
2022/08/10 03:30:13;;;;;;;5.25;4.53;;;18.20;99.90;;;;;;5012737;28;20611;-76
2022/08/10 03:32:41;;;;;;;4.90;3.92;;;18.20;99.90;;;;;;5008819;28;20237;-75
2022/08/10 03:35:08;;;;;;;6.68;4.53;;;18.20;99.90;;;;;;5006685;28;20275;-75
2022/08/10 03:37:33;;;;;;;8.95;4.10;;;18.10;99.90;;;;;;5021970;28;20173;-74
2022/08/10 03:39:59;;;;;;;7.13;4.40;;;18.10;99.90;;;;;;5009712;28;20285;-75
2022/08/10 03:42:27;;;;;;;7.95;4.20;;;18.00;99.90;;;;;;5010702;28;20249;-76
2022/08/10 03:44:55;;;;;;;6.93;4.30;;;18.10;99.90;;;;;;5001622;28;20276;-75
2022/08/10 03:47:22;;;;;;;6.65;4.15;;;18.10;99.90;;;;;;4994646;28;20208;-76
2022/08/10 03:49:49;;;;;;;7.60;4.28;;;18.10;99.90;;;;;;5007210;28;20195;-75
2022/08/10 03:52:17;;;;;;;6.45;4.10;;;18.10;99.90;;;;;;5008736;28;20183;-75
2022/08/10 03:54:43;;;;;;;7.95;4.90;;;18.00;99.90;;;;;;5015788;28;20211;-75
2022/08/10 03:57:09;;;;;;;6.50;4.63;;;18.20;99.90;;;;;;5008895;28;20776;-75
2022/08/10 03:59:35;;;;;;;6.78;4.47;;;18.20;99.90;;;;;;4988292;28;20213;-73
2022/08/10 04:02:03;;;;;;;9.55;4.68;;;18.30;99.90;;;;;;5017989;28;20200;-75
2022/08/10 04:04:28;;;;;;;6.30;4.55;;;18.50;99.90;;;;;;5010370;28;20556;-76
2022/08/10 04:06:56;;;;;;;6.95;4.82;;;18.60;99.90;;;;;;5009167;28;20207;-74
2022/08/10 04:09:27;;;;;;;7.32;4.32;;;18.80;99.90;;;;;;5007477;28;20201;-74
2022/08/10 04:11:52;;;;;;;9.30;4.40;;;19.70;99.90;;;;;;5021477;28;20259;-75
2022/08/10 04:14:20;;;;;;;7.95;4.53;;;20.00;99.90;;;;;;4989771;28;20222;-75
2022/08/10 04:16:46;;;;;;;6.38;4.38;;;20.00;99.90;;;;;;4997240;28;20196;-76
2022/08/10 04:19:14;;;;;;;8.55;4.38;;;20.00;99.90;;;;;;5020772;28;20250;-75
2022/08/10 04:21:44;;;;;;;5.65;4.30;;;20.00;99.90;;;;;;5013071;28;20305;-75
2022/08/10 04:24:20;;;;;;;6.65;4.38;;;20.00;99.90;;;;;;5005235;28;20287;-76
2022/08/10 04:26:45;;;;;;;9.20;4.82;;;19.90;99.90;;;;;;5013797;28;20199;-76
2022/08/10 04:29:12;;;;;;;7.13;4.57;;;19.90;99.90;;;;;;5017878;28;20224;-75
2022/08/10 04:31:40;;;;;;;6.78;4.60;;;19.90;99.90;;;;;;5009486;28;20667;-76
2022/08/10 04:34:06;;;;;;;8.77;4.80;;;19.90;99.90;;;;;;5005428;28;20249;-76
2022/08/10 04:36:33;;;;;;;9.30;5.00;;;19.90;99.90;;;;;;5013786;28;20256;-75
2022/08/10 04:38:59;;;;;;;10.63;4.82;;;19.90;99.90;;;;;;5016677;28;20201;-74
2022/08/10 04:41:25;;;;;;;7.45;5.00;;;20.20;99.90;;;;;;5010665;28;20214;-75
2022/08/10 04:43:51;;;;;;;7.75;4.20;;;22.40;99.90;;;;;;5011123;28;20665;-76
2022/08/10 04:46:16;;;;;;;7.47;4.32;;;24.50;99.90;;;;;;5012170;28;20220;-76
2022/08/10 04:48:42;;;;;;;5.70;4.60;;;26.30;99.90;;;;;;5008505;28;20200;-75
2022/08/10 04:51:10;;;;;;;6.22;3.67;;;27.30;99.90;;;;;;5002180;28;20225;-75
2022/08/10 04:53:36;;;;;;;6.68;3.95;;;28.10;99.90;;;;;;5016432;28;20205;-75
2022/08/10 04:56:02;;;;;;;5.53;3.53;;;28.70;99.90;;;;;;5007632;28;20708;-76
2022/08/10 04:58:28;;;;;;;5.32;4.50;;;28.90;99.90;;;;;;5004598;28;20165;-76
2022/08/10 05:00:53;;;;;;;8.13;4.78;;;28.90;99.90;;;;;;5013710;28;20719;-75
2022/08/10 05:03:19;;;;;;;6.45;4.35;;;28.80;99.90;;;;;;5012134;28;20205;-76
2022/08/10 05:05:44;;;;;;;6.15;4.55;;;28.90;99.90;;;;;;5009927;28;20246;-76
2022/08/10 05:08:10;;;;;;;6.63;4.70;;;29.50;99.90;;;;;;4987869;28;20245;-76
2022/08/10 05:10:36;;;;;;;6.25;5.13;;;30.10;99.90;;;;;;5006114;28;20185;-75
2022/08/10 05:13:01;;;;;;;5.93;5.32;;;30.00;99.90;;;;;;4996118;28;20267;-76
2022/08/10 05:15:27;;;;;;;8.43;5.70;;;29.90;99.90;;;;;;5007951;28;20613;-76
2022/08/10 05:17:52;;;;;;;8.02;4.90;;;30.10;99.90;;;;;;4995031;28;20208;-76
2022/08/10 05:20:19;;;;;;;8.27;5.50;;;30.00;99.90;;;;;;5012263;28;20320;-75
2022/08/10 05:22:45;;;;;;;8.60;4.95;;;30.60;99.90;;;;;;5008583;28;20557;-75
2022/08/10 05:25:13;;;;;;;7.90;5.53;;;31.00;99.90;;;;;;5002091;28;20240;-76
2022/08/10 05:27:40;;;;;;;6.40;4.38;;;31.40;99.90;;;;;;5018165;28;20578;-73
2022/08/10 05:30:08;;;;;;;6.15;4.28;;;31.60;99.90;;;;;;5010738;28;20284;-74
2022/08/10 05:32:35;;;;;;;7.50;5.00;;;32.10;99.90;;;;;;5005222;28;20216;-74
2022/08/10 05:35:01;;;;;;;9.38;4.80;;;31.90;99.90;;;;;;5005890;28;20199;-75
2022/08/10 05:37:29;;;;;;;7.60;4.60;;;31.30;99.90;;;;;;5013246;28;20176;-74
2022/08/10 05:39:55;;;;;;;9.48;4.05;;;32.00;99.90;;;;;;5008857;28;20210;-75
2022/08/10 05:42:22;;;;;;;6.55;4.85;;;32.00;99.90;;;;;;5001046;28;20216;-73
2022/08/10 05:44:48;;;;;;;7.45;4.72;;;32.20;99.90;;;;;;5016614;28;20634;-73
2022/08/10 05:47:14;;;;;;;9.70;5.40;;;30.80;99.90;;;;;;5011307;28;20262;-73
2022/08/10 05:49:40;;;;;;;7.13;5.53;;;31.10;99.90;;;;;;5006380;28;20710;-73
2022/08/10 05:52:06;;;;;;;9.43;5.20;;;31.10;99.90;;;;;;4988951;28;20278;-75
2022/08/10 05:54:31;;;;;;;6.15;4.50;;;31.00;99.90;;;;;;5013502;28;20236;-73
2022/08/10 05:56:57;;;;;;;7.32;4.65;;;30.90;99.90;;;;;;5007975;28;20669;-76
2022/08/10 05:59:25;;;;;;;6.15;5.22;;;31.60;99.90;;;;;;5003891;28;20208;-74
2022/08/10 06:01:53;;;;;;;5.72;4.18;;;32.10;99.70;;;;;;5015639;28;20207;-76
2022/08/10 06:04:28;;;;;;;8.10;4.75;;;32.90;98.50;;;;;;5009561;28;20520;-76
2022/08/10 06:06:54;;;;;;;8.02;5.18;;;32.90;97.90;;;;;;5011699;28;20215;-70
2022/08/10 06:09:22;;;;;;;9.73;5.30;;;33.40;97.40;;;;;;5002083;28;20209;-73
2022/08/10 06:11:50;;;;;;;8.25;4.97;;;33.80;96.00;;;;;;5011167;28;20306;-72
2022/08/10 06:17:02;;;;;;;6.47;4.32;;;33.80;95.30;;;;;;5012485;28;20742;-72
2022/08/10 06:19:28;;;;;;;7.50;4.88;;;34.40;94.60;;;;;;5020291;28;20180;-75
2022/08/10 06:21:56;;;;;;;10.18;4.28;;;34.50;94.20;;;;;;5013856;28;20262;-75
2022/08/10 06:24:24;;;;;;;7.13;5.07;;;35.10;93.10;;;;;;5009626;28;20587;-73
2022/08/10 06:26:50;;;;;;;6.93;4.30;;;34.90;92.70;;;;;;5020582;28;20227;-74
2022/08/10 06:29:19;;;;;;;6.40;4.47;;;34.80;92.50;;;;;;5025902;28;20282;-73
2022/08/10 06:31:48;;;;;;;7.63;4.53;;;34.50;92.50;;;;;;5013089;28;20207;-73
2022/08/10 06:34:15;;;;;;;6.72;4.68;;;34.40;92.20;;;;;;5011365;28;20697;-74
2022/08/10 06:36:43;;;;;;;6.93;4.68;;;33.90;91.80;;;;;;5014093;28;20227;-73
2022/08/10 06:39:09;;;;;;;5.95;4.18;;;34.40;92.20;;;;;;5017329;28;20303;-73
2022/08/10 06:41:43;;;;;;;8.07;4.43;;;33.30;92.80;;;;;;5007931;28;20228;-73
2022/08/10 06:44:14;;;;;;;6.32;3.60;;;34.00;92.50;;;;;;5016269;28;20736;-73
2022/08/10 06:46:44;;;;;;;4.63;3.58;;;32.90;93.40;;;;;;5016158;28;20183;-74
2022/08/10 06:49:14;;;;;;;4.85;3.03;;;31.90;93.60;;;;;;5019653;28;20302;-73
2022/08/10 06:51:42;;;;;;;6.53;4.63;;;32.20;94.40;;;;;;5013816;28;20722;-72
2022/08/10 06:54:11;;;;;;;6.78;4.00;;;31.60;94.20;;;;;;5009008;28;20236;-73
2022/08/10 06:56:42;;;;;;;9.85;3.47;;;32.40;94.40;;;;;;5011391;23;20315;-70
2022/08/10 06:59:37;;;;;;;5.85;3.90;;;33.10;93.90;;;;;;5005975;28;20693;-70
2022/08/10 07:02:13;;;;;;;5.03;3.30;;;32.20;93.90;;;;;;5015405;28;20299;-70
2022/08/10 07:04:59;;;;;;;6.43;3.95;;;32.90;94.30;;;;;;5017157;28;20681;-71
2022/08/10 07:07:28;;;;;;;3.97;2.80;;;34.00;93.00;;;;;;4987403;28;20212;-71
2022/08/10 07:09:55;;;;;;;6.32;3.85;;;35.10;91.70;;;;;;5002193;28;20590;-71
2022/08/10 07:12:22;;;;;;;4.85;2.90;;;35.10;91.30;;;;;;5013124;28;20212;-70
2022/08/10 07:14:50;;;;;;;4.25;3.38;;;35.50;90.70;;;;;;4996282;28;20251;-70
2022/08/10 07:17:20;;;;;;;5.32;3.30;;;34.50;90.00;;;;;;5001777;28;20223;-70
2022/08/10 07:19:49;;;;;;;6.05;3.30;;;34.80;90.70;;;;;;5012059;28;20176;-71
2022/08/10 07:22:18;;;;;;;4.57;2.97;;;35.40;90.00;;;;;;4997045;28;20200;-70
2022/08/10 07:24:45;;;;;;;6.05;2.95;;;36.20;88.20;;;;;;5009525;28;20220;-71
2022/08/10 07:27:12;;;;;;;4.47;3.22;;;37.00;85.80;;;;;;4996924;28;20228;-71
2022/08/10 07:29:39;;;;;;;7.07;3.40;;;36.20;85.10;;;;;;5019657;28;20312;-71
2022/08/10 07:32:06;;;;;;;4.70;3.10;;;36.50;85.10;;;;;;5009208;28;20616;-70
2022/08/10 07:34:35;;;;;;;5.05;3.13;;;35.90;86.10;;;;;;5005076;28;20276;-71
2022/08/10 07:37:04;;;;;;;4.05;2.95;;;36.80;85.30;;;;;;5017276;28;20287;-71
2022/08/10 07:39:34;;;;;;;4.82;3.17;;;38.10;82.40;;;;;;5009277;28;20272;-70
2022/08/10 07:42:00;;;;;;;7.80;3.17;;;38.20;80.50;;;;;;5004664;28;20220;-71
2022/08/10 07:44:28;;;;;;;3.47;2.90;;;37.80;79.90;;;;;;5012528;28;20224;-71
2022/08/10 07:46:56;;;;;;;2.80;2.60;;;37.70;79.80;;;;;;5014807;28;20208;-71
2022/08/10 07:49:26;;;;;;;5.35;2.80;;;37.40;78.90;;;;;;5007904;28;20193;-71
2022/08/10 07:51:55;;;;;;;5.63;3.00;;;37.10;79.40;;;;;;5006323;28;20210;-71
2022/08/10 07:54:23;;;;;;;3.47;3.13;;;37.40;78.80;;;;;;5014392;28;20299;-71
2022/08/10 07:56:52;;;;;;;5.03;2.85;;;36.10;79.40;;;;;;5009436;28;20211;-70
2022/08/10 07:59:36;;;;;;;5.57;2.63;;;35.20;79.50;;;;;;5004563;28;20231;-70
2022/08/10 08:02:04;;;;;;;4.57;2.17;;;34.80;81.70;;;;;;5014889;28;20220;-70
2022/08/10 08:04:31;;;;;;;4.28;2.60;;;35.60;81.60;;;;;;4997868;28;20262;-70
2022/08/10 08:06:58;;;;;;;6.03;2.60;;;35.80;80.50;;;;;;5007240;28;20205;-71
2022/08/10 08:09:27;;;;;;;4.57;2.63;;;35.80;78.60;;;;;;5007820;28;20696;-71
2022/08/10 08:11:54;;;;;;;4.93;2.50;;;36.30;79.00;;;;;;4998859;28;20299;-70
2022/08/10 08:14:21;;;;;;;4.88;2.63;;;35.30;78.30;;;;;;5011075;28;20231;-70
2022/08/10 08:16:50;;;;;;;4.70;3.03;;;34.50;79.50;;;;;;5007580;28;20281;-72
2022/08/10 08:19:17;;;;;;;5.72;3.17;;;35.00;80.40;;;;;;5013233;28;20538;-71
2022/08/10 08:21:44;;;;;;;5.40;2.63;;;34.60;80.10;;;;;;5011460;28;20215;-70
2022/08/10 08:24:12;;;;;;;7.18;3.10;;;35.20;79.50;;;;;;5007666;28;20220;-71
2022/08/10 08:26:41;;;;;;;4.68;3.97;;;35.20;77.30;;;;;;5012176;28;20223;-71
2022/08/10 08:29:09;;;;;;;4.95;2.40;;;35.70;77.70;;;;;;5000164;28;20577;-72
2022/08/10 08:31:36;;;;;;;4.35;2.22;;;36.00;77.10;;;;;;4995806;28;20190;-71
2022/08/10 08:34:03;;;;;;;3.63;2.35;;;36.30;76.90;;;;;;5003192;28;20243;-71
2022/08/10 08:36:31;;;;;;;2.75;2.08;;;36.40;76.50;;;;;;5014089;28;20641;-71
2022/08/10 08:38:56;;;;;;;3.63;2.28;;;36.20;75.40;;;;;;5011889;28;20261;-71
2022/08/10 08:41:44;;;;;;;2.80;2.53;;;36.30;74.80;;;;;;4991664;28;20224;-71
2022/08/10 08:44:42;;;;;;;3.45;2.30;;;36.90;74.30;;;;;;5013896;28;20224;-71
2022/08/10 08:47:30;;;;;;;5.50;2.20;;;36.30;73.40;;;;;;4968543;28;20678;-70
2022/08/10 08:50:18;;;;;;;2.83;2.17;;;35.50;75.10;;;;;;5009742;28;20179;-71
2022/08/10 08:53:02;;;;;;;4.75;2.60;;;35.40;74.10;;;;;;5014582;28;20168;-71
2022/08/10 08:55:41;;;;;;;2.40;2.03;;;35.80;74.20;;;;;;5009751;28;20216;-71
2022/08/10 08:58:15;;;;;;;3.63;1.90;;;35.10;73.50;;;;;;4992942;28;20587;-71
2022/08/10 09:00:43;;;;;;;6.57;3.08;;;35.40;73.90;;;;;;4993294;28;20222;-70
2022/08/10 09:03:30;;;;;;;4.18;2.35;;;35.70;74.90;;;;;;5011014;28;20247;-70
2022/08/10 09:06:18;;;;;;;4.15;1.73;;;36.10;72.90;;;;;;5002323;28;20213;-69
2022/08/10 09:09:27;;;;;;;3.65;2.00;;;36.30;72.00;;;;;;5005038;28;20239;-71
2022/08/10 09:12:19;;;;;;;3.03;1.70;;;35.70;72.00;;;;;;4991610;28;20204;-71
2022/08/10 09:15:07;;;;;;;2.85;2.55;;;35.60;72.20;;;;;;5017603;28;20199;-72
2022/08/10 09:18:00;;;;;;;2.58;1.80;;;35.40;72.20;;;;;;5019827;28;20240;-71
2022/08/10 09:20:44;;;;;;;2.22;1.67;;;35.20;70.10;;;;;;5011308;28;20291;-71
2022/08/10 09:23:34;;;;;;;3.78;1.85;;;35.00;72.10;;;;;;5012107;28;20693;-71
2022/08/10 09:26:17;;;;;;;2.83;1.90;;;34.40;70.00;;;;;;5013953;28;20679;-71
2022/08/10 09:28:43;;;;;;;2.60;1.80;;;34.70;70.70;;;;;;4997891;28;20180;-70
2022/08/10 09:31:11;;;;;;;2.30;1.67;;;34.60;70.40;;;;;;4995694;28;20263;-72
2022/08/10 09:34:02;;;;;;;3.33;1.60;;;34.70;72.60;;;;;;4993731;28;20279;-71
2022/08/10 09:36:46;;;;;;;3.50;1.50;;;34.60;70.60;;;;;;5012576;28;20228;-71
2022/08/10 09:39:21;;;;;;;2.10;1.70;;;34.40;71.10;;;;;;5012433;28;20200;-71
2022/08/10 09:41:56;;;;;;;2.88;1.60;;;34.10;72.00;;;;;;5010080;28;20266;-71
2022/08/10 09:44:40;;;;;;;1.52;1.27;;;33.60;71.20;;;;;;5013500;28;20208;-71
2022/08/10 09:47:27;;;;;;;4.95;3.17;;;33.10;69.80;;;;;;5013509;28;20276;-71
2022/08/10 09:50:22;;;;;;;4.43;1.80;;;33.40;68.50;;;;;;5001223;28;20181;-70
2022/08/10 09:53:12;;;;;;;9.85;2.90;;;33.20;69.70;;;;;;5012535;28;20188;-70
2022/08/10 09:55:47;;;;;;;4.18;1.70;;;32.90;71.50;;;;;;5012284;28;20564;-72
2022/08/10 09:58:50;;;;;;;7.68;4.75;;;32.90;71.20;;;;;;4993374;28;20212;-71
2022/08/10 10:01:36;;;;;;;3.00;2.15;;;32.70;75.00;;;;;;5006504;28;20251;-74
2022/08/10 10:04:32;;;;;;;3.35;2.28;;;32.00;72.90;;;;;;5005307;28;20251;-71
2022/08/10 10:07:02;;;;;;;6.10;2.70;;;32.10;73.20;;;;;;5011907;28;20286;-74
2022/08/10 10:09:47;;;;;;;4.93;2.10;;;32.10;73.40;;;;;;4999911;28;20208;-72
2022/08/10 10:12:41;;;;;;;2.15;1.88;;;32.50;72.70;;;;;;4988734;28;20204;-72
2022/08/10 10:15:30;;;;;;;2.95;1.90;;;32.20;72.40;;;;;;4991730;28;20750;-72
2022/08/10 10:18:05;;;;;;;2.67;1.80;;;32.30;73.00;;;;;;5010059;28;20204;-73
2022/08/10 10:20:43;;;;;;;3.67;2.38;;;32.40;72.60;;;;;;5014574;28;20209;-74
2022/08/10 10:23:40;;;;;;;2.47;1.73;;;31.40;73.30;;;;;;5010362;28;20662;-76
2022/08/10 10:26:47;;;;;;;2.60;1.80;;;31.90;74.80;;;;;;4992192;28;20721;-76
2022/08/10 10:29:27;;;;;;;3.20;1.60;;;32.00;73.50;;;;;;5012448;28;20212;-76
2022/08/10 10:32:07;;;;;;;3.53;1.60;;;32.10;72.20;;;;;;4997100;28;20650;-76
2022/08/10 10:34:38;;;;;;;3.83;1.60;;;31.60;70.40;;;;;;4987853;28;20260;-77
2022/08/10 10:37:06;;;;;;;3.08;2.33;;;31.90;72.00;;;;;;5016867;28;20209;-77
2022/08/10 10:39:34;;;;;;;2.65;1.67;;;31.80;71.00;;;;;;4999722;28;20260;-77
2022/08/10 10:42:11;;;;;;;5.57;3.63;;;31.60;70.90;;;;;;5014751;28;20272;-74
2022/08/10 10:45:00;;;;;;;1.90;1.77;;;30.60;72.70;;;;;;5018952;28;20209;-73
2022/08/10 10:47:54;;;;;;;2.50;1.80;;;30.30;74.20;;;;;;4989292;28;20233;-75
2022/08/10 10:50:54;;;;;;;5.32;2.65;;;30.90;73.70;;;;;;5011100;28;20209;-74
2022/08/10 10:53:37;;;;;;;2.67;2.22;;;30.40;73.80;;;;;;5019981;28;20286;-75
2022/08/10 10:56:23;;;;;;;2.60;2.00;;;29.80;75.80;;;;;;5018504;28;20875;-74
2022/08/10 10:59:19;;;;;;;4.82;2.40;;;29.90;76.00;;;;;;5007824;28;20180;-72
2022/08/10 11:01:55;;;;;;;2.35;1.95;;;29.80;75.70;;;;;;5014350;28;20200;-72
2022/08/10 11:04:35;;;;;;;5.70;2.22;;;29.60;76.20;;;;;;5000142;28;20212;-73
2022/08/10 11:07:18;;;;;;;3.22;1.83;;;29.50;76.20;;;;;;5012319;28;20212;-72
2022/08/10 11:10:06;;;;;;;3.15;1.50;;;29.30;75.60;;;;;;5015170;28;20752;-71
2022/08/10 11:12:45;;;;;;;2.80;1.70;;;29.50;75.00;;;;;;4996422;28;20244;-77
2022/08/10 11:15:14;;;;;;;2.03;1.58;;;29.20;75.50;;;;;;5018003;28;20225;-76
2022/08/10 11:17:51;;;;;;;4.03;1.88;;;29.20;74.40;;;;;;5007027;28;20213;-75
2022/08/10 11:20:41;;;;;;;3.80;1.77;;;29.50;74.60;;;;;;5016923;28;20624;-74
2022/08/10 11:23:27;;;;;;;3.63;1.40;;;29.70;72.80;;;;;;4988910;28;20268;-74
2022/08/10 11:26:00;;;;;;;2.88;1.92;;;29.80;71.90;;;;;;5017386;28;20202;-75
2022/08/10 11:28:32;;;;;;;3.83;1.80;;;29.50;73.30;;;;;;5004094;28;20177;-75
2022/08/10 11:31:25;;;;;;;1.70;1.30;;;29.60;72.60;;;;;;5012595;28;20279;-76
2022/08/10 11:34:10;;;;;;;1.92;1.35;;;30.20;73.70;;;;;;5001779;28;20198;-76
2022/08/10 11:36:57;;;;;;;2.22;1.70;;;29.80;70.00;;;;;;5017698;28;20209;-73
2022/08/10 11:39:37;;;;;;;3.40;1.75;;;30.00;71.90;;;;;;4993644;28;20213;-73
2022/08/10 11:42:15;;;;;;;2.72;1.70;;;30.60;73.70;;;;;;5005852;28;20209;-72
2022/08/10 11:45:23;;;;;;;3.00;1.40;;;30.80;72.40;;;;;;5015854;28;20221;-73
2022/08/10 11:48:09;;;;;;;2.85;1.40;;;30.90;72.50;;;;;;4997723;28;20673;-73
2022/08/10 11:51:04;;;;;;;3.35;1.63;;;30.60;70.30;;;;;;5005695;28;20225;-74
2022/08/10 11:53:51;;;;;;;2.40;1.80;;;29.60;72.90;;;;;;4997953;28;20260;-74
2022/08/10 11:56:30;;;;;;;2.30;1.88;;;29.60;73.30;;;;;;5009401;28;20212;-75
2022/08/10 12:01:44;;;;;;;1.80;1.48;;;30.20;73.90;;;;;;5013382;28;20603;-75
2022/08/10 12:04:12;;;;;;;3.42;2.10;;;29.90;74.10;;;;;;5008150;28;20204;-76
2022/08/10 12:06:40;;;;;;;2.47;1.67;;;30.20;74.40;;;;;;5008375;28;20216;-75
2022/08/10 12:09:08;;;;;;;2.65;1.77;;;30.40;73.80;;;;;;4990792;28;20211;-75
2022/08/10 12:11:34;;;;;;;2.83;1.73;;;29.60;74.10;;;;;;5016612;28;20206;-71
2022/08/10 12:14:13;;;;;;;3.17;1.50;;;29.60;74.80;;;;;;4994439;28;20196;-74
2022/08/10 12:16:43;;;;;;;1.90;1.80;;;30.00;74.40;;;;;;4995691;28;20216;-73
2022/08/10 12:19:49;;;;;;;4.70;1.60;;;29.90;74.20;;;;;;5016445;28;20673;-75
2022/08/10 12:22:23;;;;;;;5.18;1.88;;;29.60;73.90;;;;;;5009356;28;20694;-73
2022/08/10 12:24:59;;;;;;;3.17;1.92;;;29.60;74.90;;;;;;4995321;28;20201;-74
2022/08/10 12:27:49;;;;;;;3.05;1.77;;;29.70;76.30;;;;;;5014869;28;20204;-71
2022/08/10 12:30:18;;;;;;;9.85;2.65;;;29.20;74.70;;;;;;5011202;28;20212;-73
2022/08/10 12:32:53;;;;;;;6.32;1.80;;;29.00;75.00;;;;;;5009253;28;20208;-74
2022/08/10 12:35:39;;;;;;;3.05;1.70;;;28.80;75.60;;;;;;5006122;28;20208;-73
2022/08/10 12:38:36;;;;;;;2.60;1.67;;;28.90;76.00;;;;;;5010231;28;20220;-71
2022/08/10 12:41:24;;;;;;;2.30;1.70;;;28.80;76.90;;;;;;4991630;28;20248;-72
2022/08/10 12:44:05;;;;;;;2.13;1.67;;;29.00;76.40;;;;;;4994423;28;20588;-72
2022/08/10 12:46:55;;;;;;;4.22;1.73;;;29.10;76.50;;;;;;5014646;28;20193;-72
2022/08/10 12:49:33;;;;;;;5.28;1.77;;;29.10;79.80;;;;;;5007208;28;20659;-71
2022/08/10 12:52:02;;;;;;;3.45;2.30;;;29.10;77.20;;;;;;5007729;28;20212;-69
2022/08/10 12:54:35;;;;;;;3.22;1.83;;;29.00;77.70;;;;;;4994365;28;20272;-70
2022/08/10 12:57:03;;;;;;;5.15;2.00;;;28.90;76.90;;;;;;5012490;28;20657;-73
2022/08/10 12:59:30;;;;;;;2.97;1.67;;;28.80;77.00;;;;;;5034349;22;20221;-72
2022/08/10 13:01:57;;;;;;;3.38;1.90;;;28.80;76.00;;;;;;5022991;28;20215;-72
2022/08/10 13:04:28;;;;;;;3.15;1.98;;;28.50;77.50;;;;;;5030994;28;20188;-72
2022/08/10 13:06:57;;;;;;;2.10;1.60;;;28.60;76.50;;;;;;5029364;28;20262;-73
2022/08/10 13:09:23;;;;;;;5.43;2.03;;;28.70;76.60;;;;;;5011780;28;20600;-74
2022/08/10 13:12:02;;;;;;;2.47;1.63;;;28.80;85.90;;;;;;5026213;28;20207;-73
2022/08/10 13:14:35;;;;;;;2.17;1.90;;;28.80;78.20;;;;;;5028324;28;20203;-76
2022/08/10 13:17:03;;;;;;;2.20;2.00;;;28.70;85.90;;;;;;5019334;28;20172;-72
2022/08/10 13:19:35;;;;;;;3.80;1.73;;;28.90;77.00;;;;;;5033867;28;20691;-72
2022/08/10 13:22:02;;;;;;;4.65;2.20;;;28.90;79.60;;;;;;5016584;28;20344;-76